Time;durP1;ratioP1;P1;durP2;ratioP2;P2;SDS_P1;SDS_P2;PMS_P1;PMS_P2;Temp;Humidity;BMP_temperature;BMP_pressure;BME280_temperature;BME280_humidity;BME280_pressure;Samples;Min_cycle;Max_cycle;Signal;HPM_P1;HPM_P2
2023/12/27 00:02:17;;;;;;;6.07;4.70;;;;;;;;;;5035643;28;20801;-68
2023/12/27 00:04:44;;;;;;;6.85;4.90;;;;;;;;;;5035725;28;20862;-68
2023/12/27 00:07:11;;;;;;;7.25;4.70;;;;;;;;;;5035033;28;21293;-68
2023/12/27 00:09:41;;;;;;;6.72;4.88;;;;;;;;;;5032039;28;21079;-68
2023/12/27 00:12:09;;;;;;;8.50;4.90;;;;;;;;;;5041403;28;20486;-68
2023/12/27 00:14:36;;;;;;;5.80;4.90;;;;;;;;;;5033101;28;20441;-68
2023/12/27 00:17:03;;;;;;;9.73;5.00;;;;;;;;;;5045761;28;20433;-68
2023/12/27 00:19:31;;;;;;;7.90;5.43;;;;;;;;;;5030596;28;20435;-68
2023/12/27 00:21:58;;;;;;;8.70;5.45;;;;;;;;;;5037359;28;20786;-68
2023/12/27 00:24:25;;;;;;;7.43;5.33;;;;;;;;;;5034418;28;20425;-68
2023/12/27 00:26:53;;;;;;;9.63;5.57;;;;;;;;;;5040062;28;20490;-68
2023/12/27 00:29:20;;;;;;;7.07;5.60;;;;;;;;;;5043197;28;20530;-68
2023/12/27 00:31:47;;;;;;;7.80;5.60;;;;;;;;;;5041967;28;20555;-68
2023/12/27 00:34:16;;;;;;;9.80;5.70;;;;;;;;;;5038240;28;20488;-68
2023/12/27 00:36:44;;;;;;;8.30;5.68;;;;;;;;;;5029663;28;20916;-68
2023/12/27 00:39:11;;;;;;;5.90;4.93;;;;;;;;;;5040599;28;20856;-68
2023/12/27 00:41:38;;;;;;;8.00;5.13;;;;;;;;;;5032968;28;20844;-68
2023/12/27 00:44:08;;;;;;;11.63;5.28;;;;;;;;;;5048464;28;20437;-68
2023/12/27 00:46:39;;;;;;;6.75;4.90;;;;;;;;;;5044737;28;20417;-68
2023/12/27 00:49:06;;;;;;;10.07;5.93;;;;;;;;;;5036867;28;20448;-68
2023/12/27 00:51:33;;;;;;;10.07;5.70;;;;;;;;;;5038569;28;20427;-68
2023/12/27 00:54:00;;;;;;;7.70;5.68;;;;;;;;;;5038923;28;20452;-68
2023/12/27 00:56:28;;;;;;;10.23;6.00;;;;;;;;;;5036082;28;20979;-68
2023/12/27 00:58:55;;;;;;;10.85;6.10;;;;;;;;;;5038663;28;20425;-68
2023/12/27 01:01:25;;;;;;;9.47;5.90;;;;;;;;;;5045510;28;20433;-68
2023/12/27 01:04:03;;;;;;;13.25;6.35;;;;;;;;;;5033452;28;20429;-68
2023/12/27 01:06:30;;;;;;;10.60;6.47;;;;;;;;;;5038059;28;20432;-68
2023/12/27 01:08:58;;;;;;;11.82;6.40;;;;;;;;;;5043950;28;20486;-68
2023/12/27 01:11:27;;;;;;;13.75;6.97;;;;;;;;;;5043129;28;20905;-68
2023/12/27 01:13:54;;;;;;;10.55;6.57;;;;;;;;;;5035052;28;20430;-68
2023/12/27 01:16:22;;;;;;;10.90;6.70;;;;;;;;;;5040177;28;20437;-68
2023/12/27 01:18:49;;;;;;;11.90;6.78;;;;;;;;;;5042548;28;20983;-68
2023/12/27 01:21:17;;;;;;;8.55;6.57;;;;;;;;;;5041138;28;20433;-68
2023/12/27 01:23:47;;;;;;;12.32;7.07;;;;;;;;;;5036075;28;20431;-68
2023/12/27 01:26:17;;;;;;;15.13;8.35;;;;;;;;;;5040579;28;20535;-68
2023/12/27 01:28:44;;;;;;;14.67;8.67;;;;;;;;;;5035523;28;20442;-68
2023/12/27 01:31:11;;;;;;;13.65;7.47;;;;;;;;;;5044917;28;20440;-68
2023/12/27 01:33:41;;;;;;;12.98;7.82;;;;;;;;;;5043625;28;20582;-68
2023/12/27 01:36:09;;;;;;;13.20;7.72;;;;;;;;;;5042957;28;20425;-68
2023/12/27 01:38:36;;;;;;;10.15;7.53;;;;;;;;;;5036715;28;20791;-68
2023/12/27 01:41:03;;;;;;;13.43;7.20;;;;;;;;;;5035211;28;20907;-68
2023/12/27 01:43:30;;;;;;;11.63;6.68;;;;;;;;;;5038874;28;20476;-68
2023/12/27 01:45:57;;;;;;;10.40;7.40;;;;;;;;;;5043849;28;20458;-68
2023/12/27 01:48:25;;;;;;;11.20;6.80;;;;;;;;;;5035488;28;20511;-68
2023/12/27 01:50:54;;;;;;;13.65;7.45;;;;;;;;;;5029514;28;20432;-68
2023/12/27 01:53:23;;;;;;;12.70;7.32;;;;;;;;;;5032531;28;20433;-68
2023/12/27 01:55:51;;;;;;;10.60;6.60;;;;;;;;;;5035806;28;20484;-68
2023/12/27 01:58:22;;;;;;;10.32;6.88;;;;;;;;;;5028097;28;20433;-68
2023/12/27 02:00:49;;;;;;;8.07;6.32;;;;;;;;;;5047414;28;20436;-68
2023/12/27 02:03:17;;;;;;;9.98;6.88;;;;;;;;;;5033811;28;20487;-68
2023/12/27 02:05:45;;;;;;;10.40;7.05;;;;;;;;;;5044000;28;20433;-67
2023/12/27 02:08:14;;;;;;;12.23;6.90;;;;;;;;;;5034656;28;20491;-68
2023/12/27 02:10:41;;;;;;;10.68;6.53;;;;;;;;;;5033553;28;20431;-68
2023/12/27 02:13:11;;;;;;;11.05;6.55;;;;;;;;;;5033553;28;20426;-68
2023/12/27 02:15:38;;;;;;;9.40;6.72;;;;;;;;;;5034783;28;20933;-68
2023/12/27 02:18:10;;;;;;;10.65;6.78;;;;;;;;;;5035421;28;20433;-68
2023/12/27 02:20:38;;;;;;;9.60;7.10;;;;;;;;;;5027741;28;20967;-68
2023/12/27 02:23:07;;;;;;;10.30;7.03;;;;;;;;;;5027246;28;20449;-68
2023/12/27 02:25:35;;;;;;;12.90;7.38;;;;;;;;;;5029659;28;20461;-68
2023/12/27 02:28:02;;;;;;;12.82;8.48;;;;;;;;;;5046973;28;20436;-68
2023/12/27 02:30:31;;;;;;;13.60;8.05;;;;;;;;;;5047995;28;20896;-68
2023/12/27 02:32:58;;;;;;;11.93;7.22;;;;;;;;;;5039839;28;20427;-68
2023/12/27 02:35:26;;;;;;;11.10;7.50;;;;;;;;;;5028898;28;20476;-68
2023/12/27 02:37:53;;;;;;;14.52;7.80;;;;;;;;;;5040350;28;20435;-68
2023/12/27 02:40:20;;;;;;;12.75;7.38;;;;;;;;;;5047330;28;20429;-68
2023/12/27 02:42:48;;;;;;;14.50;7.18;;;;;;;;;;5040971;28;20548;-68
2023/12/27 02:45:15;;;;;;;13.50;7.80;;;;;;;;;;5033064;28;20438;-68
2023/12/27 02:47:42;;;;;;;11.38;7.00;;;;;;;;;;5032041;28;21059;-67
2023/12/27 02:50:09;;;;;;;9.38;7.65;;;;;;;;;;5046591;28;20429;-68
2023/12/27 02:52:37;;;;;;;11.98;7.60;;;;;;;;;;5040048;28;20480;-67
2023/12/27 02:55:07;;;;;;;10.25;7.50;;;;;;;;;;5050330;28;20444;-67
2023/12/27 02:57:34;;;;;;;13.53;7.77;;;;;;;;;;5046731;28;20539;-68
2023/12/27 03:00:03;;;;;;;14.32;8.38;;;;;;;;;;5039345;28;20434;-67
2023/12/27 03:02:30;;;;;;;12.38;8.27;;;;;;;;;;5030982;28;20537;-67
2023/12/27 03:04:58;;;;;;;14.00;8.13;;;;;;;;;;5034811;28;20510;-67
2023/12/27 03:07:25;;;;;;;13.10;7.87;;;;;;;;;;5043251;28;20429;-67
2023/12/27 03:09:52;;;;;;;13.27;7.93;;;;;;;;;;5039380;28;20426;-67
2023/12/27 03:12:26;;;;;;;10.70;7.70;;;;;;;;;;5041075;28;20508;-67
2023/12/27 03:14:54;;;;;;;12.13;7.73;;;;;;;;;;5039173;28;20488;-67
2023/12/27 03:17:24;;;;;;;13.82;7.82;;;;;;;;;;5037168;28;20433;-67
2023/12/27 03:19:51;;;;;;;12.05;7.80;;;;;;;;;;5033543;28;20455;-67
2023/12/27 03:22:22;;;;;;;11.23;7.30;;;;;;;;;;5038032;28;21210;-67
2023/12/27 03:24:49;;;;;;;12.93;7.78;;;;;;;;;;5033988;28;20461;-67
2023/12/27 03:27:16;;;;;;;12.88;8.00;;;;;;;;;;5041321;28;20486;-67
2023/12/27 03:29:43;;;;;;;11.63;8.05;;;;;;;;;;5038533;28;20487;-67
2023/12/27 03:32:10;;;;;;;11.80;7.18;;;;;;;;;;5037545;28;20952;-67
2023/12/27 03:34:38;;;;;;;9.17;6.90;;;;;;;;;;5046940;28;20429;-68
2023/12/27 03:37:08;;;;;;;10.95;7.07;;;;;;;;;;5034274;28;20436;-68
2023/12/27 03:39:35;;;;;;;11.60;7.18;;;;;;;;;;5033336;28;21082;-68
2023/12/27 03:42:03;;;;;;;10.65;7.07;;;;;;;;;;5031041;28;20471;-69
2023/12/27 03:44:30;;;;;;;10.55;7.25;;;;;;;;;;5030823;28;20435;-68
2023/12/27 03:46:57;;;;;;;12.73;8.57;;;;;;;;;;5032728;28;20434;-68
2023/12/27 03:49:24;;;;;;;12.77;7.68;;;;;;;;;;5034980;28;20522;-68
2023/12/27 03:51:54;;;;;;;9.43;6.87;;;;;;;;;;5048273;28;21224;-68
2023/12/27 03:54:23;;;;;;;11.32;7.35;;;;;;;;;;5034628;28;20434;-68
2023/12/27 03:56:51;;;;;;;9.88;7.40;;;;;;;;;;5032155;28;20973;-68
2023/12/27 03:59:18;;;;;;;11.82;7.18;;;;;;;;;;5045177;28;20505;-68
2023/12/27 04:01:47;;;;;;;11.18;7.63;;;;;;;;;;5042357;28;20511;-68
2023/12/27 04:04:15;;;;;;;9.73;7.40;;;;;;;;;;5035844;28;20433;-68
2023/12/27 04:06:43;;;;;;;9.40;6.90;;;;;;;;;;5037280;28;20431;-68
2023/12/27 04:09:10;;;;;;;10.93;6.90;;;;;;;;;;5035206;28;20425;-68
2023/12/27 04:11:46;;;;;;;10.13;6.70;;;;;;;;;;5037418;28;20430;-69
2023/12/27 04:14:18;;;;;;;9.07;6.78;;;;;;;;;;5036610;28;20600;-69
2023/12/27 04:16:45;;;;;;;11.07;7.07;;;;;;;;;;5041343;28;20436;-69
2023/12/27 04:19:12;;;;;;;9.50;7.07;;;;;;;;;;5045543;28;20461;-69
2023/12/27 04:21:43;;;;;;;8.60;6.70;;;;;;;;;;5042836;28;20476;-69
2023/12/27 04:24:13;;;;;;;11.30;7.05;;;;;;;;;;5042438;28;20846;-69
2023/12/27 04:26:41;;;;;;;11.55;8.20;;;;;;;;;;5029390;28;20462;-69
2023/12/27 04:29:10;;;;;;;12.13;8.73;;;;;;;;;;5036313;28;20434;-69
2023/12/27 04:31:40;;;;;;;12.15;8.52;;;;;;;;;;5031391;28;20493;-69
2023/12/27 04:34:10;;;;;;;14.48;9.07;;;;;;;;;;5034510;28;20433;-69
2023/12/27 04:36:37;;;;;;;15.57;9.45;;;;;;;;;;5046635;28;20995;-69
2023/12/27 04:39:07;;;;;;;17.25;9.55;;;;;;;;;;5042601;28;20452;-69
2023/12/27 04:41:35;;;;;;;15.48;9.98;;;;;;;;;;5040500;28;20925;-68
2023/12/27 04:44:02;;;;;;;17.05;10.15;;;;;;;;;;5040161;28;20441;-68
2023/12/27 04:46:32;;;;;;;15.00;9.73;;;;;;;;;;5037663;28;20930;-69
2023/12/27 04:49:00;;;;;;;12.83;8.53;;;;;;;;;;5040067;28;20431;-69
2023/12/27 04:51:28;;;;;;;13.67;8.70;;;;;;;;;;5034831;28;20429;-69
2023/12/27 04:53:56;;;;;;;15.18;9.50;;;;;;;;;;5037226;28;20435;-69
2023/12/27 04:56:23;;;;;;;16.77;9.10;;;;;;;;;;5041060;28;20487;-68
2023/12/27 04:58:51;;;;;;;15.17;9.40;;;;;;;;;;5037572;28;20490;-69
2023/12/27 05:01:18;;;;;;;16.10;9.05;;;;;;;;;;5039790;28;20447;-69
2023/12/27 05:03:45;;;;;;;12.27;8.80;;;;;;;;;;5033940;28;20433;-69
2023/12/27 05:06:13;;;;;;;12.70;8.32;;;;;;;;;;5043516;28;20511;-69
2023/12/27 05:08:41;;;;;;;11.27;8.40;;;;;;;;;;5048451;28;20482;-69
2023/12/27 05:11:19;;;;;;;11.98;8.50;;;;;;;;;;5040029;28;20884;-69
2023/12/27 05:13:46;;;;;;;13.82;8.93;;;;;;;;;;5040298;28;20524;-69
2023/12/27 05:16:14;;;;;;;12.45;8.88;;;;;;;;;;5043437;28;20433;-69
2023/12/27 05:18:42;;;;;;;12.85;8.45;;;;;;;;;;5046533;28;20461;-68
2023/12/27 05:21:10;;;;;;;14.38;9.63;;;;;;;;;;5036068;28;21031;-68
2023/12/27 05:23:38;;;;;;;14.40;9.80;;;;;;;;;;5046977;28;20433;-68
2023/12/27 05:26:05;;;;;;;16.25;10.32;;;;;;;;;;5043173;28;20520;-68
2023/12/27 05:28:33;;;;;;;17.20;10.20;;;;;;;;;;5038958;28;20427;-69
2023/12/27 05:31:00;;;;;;;18.75;10.57;;;;;;;;;;5041997;28;20589;-68
2023/12/27 05:33:28;;;;;;;20.10;10.63;;;;;;;;;;5034424;28;20438;-68
2023/12/27 05:35:56;;;;;;;17.48;10.48;;;;;;;;;;5036097;28;20530;-68
2023/12/27 05:38:24;;;;;;;22.33;11.55;;;;;;;;;;5033619;28;20433;-68
2023/12/27 05:40:51;;;;;;;19.50;10.57;;;;;;;;;;5036548;28;20948;-68
2023/12/27 05:43:25;;;;;;;21.35;10.63;;;;;;;;;;5028759;28;20438;-68
2023/12/27 05:45:52;;;;;;;19.20;11.17;;;;;;;;;;5035913;28;20576;-68
2023/12/27 05:48:25;;;;;;;19.10;10.80;;;;;;;;;;5033512;28;20485;-68
2023/12/27 05:50:55;;;;;;;17.45;10.18;;;;;;;;;;5029708;28;20458;-68
2023/12/27 05:53:25;;;;;;;18.05;11.00;;;;;;;;;;5031528;28;20512;-68
2023/12/27 05:55:52;;;;;;;15.15;9.77;;;;;;;;;;5035282;28;20840;-68
2023/12/27 05:58:19;;;;;;;17.67;10.10;;;;;;;;;;5038452;28;20799;-69
2023/12/27 06:00:47;;;;;;;16.65;9.90;;;;;;;;;;5039736;28;20534;-69
2023/12/27 06:03:15;;;;;;;16.73;9.57;;;;;;;;;;5037536;28;20429;-69
2023/12/27 06:05:42;;;;;;;16.45;9.88;;;;;;;;;;5036917;28;20426;-68
2023/12/27 06:08:09;;;;;;;19.13;9.82;;;;;;;;;;5037375;28;20522;-69
2023/12/27 06:10:37;;;;;;;24.60;10.10;;;;;;;;;;5043901;28;20434;-69
2023/12/27 06:13:04;;;;;;;15.70;9.60;;;;;;;;;;5040274;28;20435;-69
2023/12/27 06:15:31;;;;;;;15.18;9.10;;;;;;;;;;5034442;28;20522;-69
2023/12/27 06:17:59;;;;;;;15.67;10.07;;;;;;;;;;5036429;28;20441;-68
2023/12/27 06:20:27;;;;;;;14.43;8.90;;;;;;;;;;5041564;28;20436;-68
2023/12/27 06:22:54;;;;;;;16.08;9.15;;;;;;;;;;5046353;28;20432;-68
2023/12/27 06:25:22;;;;;;;14.82;9.50;;;;;;;;;;5040715;28;20467;-70
2023/12/27 06:27:49;;;;;;;16.20;9.35;;;;;;;;;;5038360;28;20510;-68
2023/12/27 06:30:16;;;;;;;18.48;10.07;;;;;;;;;;5040023;28;20424;-68
2023/12/27 06:32:44;;;;;;;15.95;9.70;;;;;;;;;;5040712;28;20431;-68
2023/12/27 06:35:11;;;;;;;16.15;9.88;;;;;;;;;;5043585;28;20434;-68
2023/12/27 06:37:38;;;;;;;13.63;9.20;;;;;;;;;;5047090;28;20424;-68
2023/12/27 06:40:10;;;;;;;16.58;8.80;;;;;;;;;;5041917;28;20954;-68
2023/12/27 06:42:37;;;;;;;18.48;9.25;;;;;;;;;;5036478;28;20441;-68
2023/12/27 06:45:05;;;;;;;15.43;9.10;;;;;;;;;;5040055;28;20422;-68
2023/12/27 06:47:32;;;;;;;17.52;9.27;;;;;;;;;;5040087;28;20517;-69
2023/12/27 06:49:59;;;;;;;13.20;8.82;;;;;;;;;;5040372;28;21106;-68
2023/12/27 06:52:27;;;;;;;13.67;9.43;;;;;;;;;;5040537;28;20779;-69
2023/12/27 06:54:54;;;;;;;14.93;8.88;;;;;;;;;;5041672;28;20917;-68
2023/12/27 06:57:21;;;;;;;12.85;8.80;;;;;;;;;;5041346;28;20856;-68
2023/12/27 06:59:50;;;;;;;15.57;8.60;;;;;;;;;;5035094;28;21134;-68
2023/12/27 07:02:19;;;;;;;16.85;8.98;;;;;;;;;;5045486;28;20431;-68
2023/12/27 07:04:46;;;;;;;15.98;8.75;;;;;;;;;;5044379;28;20441;-68
2023/12/27 07:07:17;;;;;;;15.25;9.00;;;;;;;;;;5041511;28;20632;-68
2023/12/27 07:09:46;;;;;;;14.55;8.85;;;;;;;;;;5041493;28;20495;-68
2023/12/27 07:12:13;;;;;;;15.38;8.85;;;;;;;;;;5039754;28;20425;-68
2023/12/27 07:14:41;;;;;;;16.67;9.10;;;;;;;;;;5044571;28;20484;-68
2023/12/27 07:17:10;;;;;;;15.55;9.00;;;;;;;;;;5038296;28;20491;-68
2023/12/27 07:19:43;;;;;;;16.23;9.45;;;;;;;;;;5040550;28;20453;-68
2023/12/27 07:22:10;;;;;;;15.80;8.98;;;;;;;;;;5030659;28;20441;-68
2023/12/27 07:24:38;;;;;;;15.40;8.40;;;;;;;;;;5039407;28;20447;-68
2023/12/27 07:27:05;;;;;;;15.07;8.85;;;;;;;;;;5038480;28;20437;-68
2023/12/27 07:29:36;;;;;;;16.52;9.40;;;;;;;;;;5046040;28;20463;-68
2023/12/27 07:32:04;;;;;;;19.48;9.05;;;;;;;;;;5045943;28;21164;-68
2023/12/27 07:34:32;;;;;;;16.75;8.85;;;;;;;;;;5041529;28;20429;-68
2023/12/27 07:37:00;;;;;;;15.03;8.77;;;;;;;;;;5046615;28;20470;-68
2023/12/27 07:39:27;;;;;;;13.15;8.40;;;;;;;;;;5030897;28;20519;-68
2023/12/27 07:41:54;;;;;;;16.65;8.50;;;;;;;;;;5036676;28;20456;-68
2023/12/27 07:44:22;;;;;;;14.18;8.70;;;;;;;;;;5041953;28;20488;-68
2023/12/27 07:46:49;;;;;;;15.00;8.60;;;;;;;;;;5044835;28;20440;-68
2023/12/27 07:49:19;;;;;;;13.70;8.02;;;;;;;;;;5033962;28;20509;-68
2023/12/27 07:51:47;;;;;;;15.05;8.15;;;;;;;;;;5032852;28;20433;-68
2023/12/27 07:54:14;;;;;;;11.23;7.60;;;;;;;;;;5034030;28;20515;-68
2023/12/27 07:56:41;;;;;;;11.95;7.63;;;;;;;;;;5048399;28;20444;-68
2023/12/27 07:59:08;;;;;;;19.48;11.57;;;;;;;;;;5040799;28;20529;-68
2023/12/27 08:01:35;;;;;;;12.65;7.65;;;;;;;;;;5034534;28;20516;-68
2023/12/27 08:04:03;;;;;;;14.60;8.00;;;;;;;;;;5047111;28;20793;-68
2023/12/27 08:06:30;;;;;;;11.15;7.70;;;;;;;;;;5041356;28;20436;-68
2023/12/27 08:08:57;;;;;;;13.48;7.13;;;;;;;;;;5038855;28;20770;-68
2023/12/27 08:11:25;;;;;;;15.55;7.30;;;;;;;;;;5040225;28;20805;-68
2023/12/27 08:13:53;;;;;;;14.50;7.32;;;;;;;;;;5042925;28;20579;-68
2023/12/27 08:16:24;;;;;;;13.97;6.60;;;;;;;;;;5037260;28;20464;-68
2023/12/27 08:18:53;;;;;;;13.52;6.60;;;;;;;;;;5055073;28;20432;-67
2023/12/27 08:21:21;;;;;;;16.70;6.33;;;;;;;;;;5041574;28;20492;-68
2023/12/27 08:23:49;;;;;;;11.02;6.35;;;;;;;;;;5045017;28;20436;-68
2023/12/27 08:26:16;;;;;;;12.38;6.43;;;;;;;;;;5037679;28;20931;-68
2023/12/27 08:28:43;;;;;;;12.35;6.15;;;;;;;;;;5039997;28;20467;-68
2023/12/27 08:31:14;;;;;;;10.57;6.25;;;;;;;;;;5034464;28;20422;-68
2023/12/27 08:33:41;;;;;;;10.00;5.80;;;;;;;;;;5042256;28;20469;-68
2023/12/27 08:36:08;;;;;;;11.70;5.72;;;;;;;;;;5045190;28;20429;-68
2023/12/27 08:38:35;;;;;;;10.00;5.63;;;;;;;;;;5035215;28;20527;-68
2023/12/27 08:41:09;;;;;;;15.07;10.37;;;;;;;;;;5040289;28;20431;-68
2023/12/27 08:43:42;;;;;;;8.55;5.35;;;;;;;;;;5040646;28;20456;-68
2023/12/27 08:46:10;;;;;;;8.77;6.38;;;;;;;;;;5040165;28;20582;-68
2023/12/27 08:48:38;;;;;;;7.53;4.68;;;;;;;;;;5037346;28;20508;-68
2023/12/27 08:51:05;;;;;;;7.65;4.15;;;;;;;;;;5039897;28;20494;-68
2023/12/27 08:53:41;;;;;;;7.82;4.03;;;;;;;;;;5047754;28;20491;-68
2023/12/27 08:56:08;;;;;;;6.72;3.80;;;;;;;;;;5029772;28;20782;-68
2023/12/27 08:58:36;;;;;;;4.57;3.80;;;;;;;;;;5039430;28;20439;-68
2023/12/27 09:01:06;;;;;;;6.28;3.47;;;;;;;;;;5030112;28;20445;-68
2023/12/27 09:03:33;;;;;;;6.60;3.90;;;;;;;;;;5039337;28;20425;-68
2023/12/27 09:06:01;;;;;;;8.05;3.80;;;;;;;;;;5046771;28;20429;-68
2023/12/27 09:08:31;;;;;;;5.65;3.50;;;;;;;;;;5041585;28;21150;-68
2023/12/27 09:10:58;;;;;;;5.68;3.30;;;;;;;;;;5038991;28;20481;-68
2023/12/27 09:13:26;;;;;;;5.13;3.53;;;;;;;;;;5036099;28;20437;-68
2023/12/27 09:15:53;;;;;;;5.15;3.08;;;;;;;;;;5033954;28;20449;-68
2023/12/27 09:18:24;;;;;;;6.75;3.35;;;;;;;;;;5041191;28;20433;-68
2023/12/27 09:20:51;;;;;;;4.18;2.90;;;;;;;;;;5033985;28;20593;-69
2023/12/27 09:23:18;;;;;;;5.20;2.87;;;;;;;;;;5035416;28;20501;-69
2023/12/27 09:25:46;;;;;;;5.20;2.35;;;;;;;;;;5036843;28;20978;-68
2023/12/27 09:28:18;;;;;;;5.07;2.65;;;;;;;;;;5040858;28;20458;-68
2023/12/27 09:30:46;;;;;;;4.18;2.40;;;;;;;;;;5026751;28;20435;-68
2023/12/27 09:33:14;;;;;;;4.90;2.50;;;;;;;;;;5036534;28;20518;-68
2023/12/27 09:35:44;;;;;;;3.80;2.50;;;;;;;;;;5035953;28;20423;-68
2023/12/27 09:38:11;;;;;;;7.63;2.97;;;;;;;;;;5038962;28;20427;-68
2023/12/27 09:40:39;;;;;;;4.07;2.50;;;;;;;;;;5034352;28;20426;-68
2023/12/27 09:43:15;;;;;;;4.50;2.47;;;;;;;;;;5032057;28;20837;-68
2023/12/27 09:45:42;;;;;;;6.15;2.40;;;;;;;;;;5028991;28;20605;-68
2023/12/27 09:48:11;;;;;;;8.48;2.75;;;;;;;;;;5032678;28;20433;-68
2023/12/27 09:50:47;;;;;;;8.80;2.85;;;;;;;;;;5038059;28;20438;-68
2023/12/27 09:53:16;;;;;;;5.25;2.65;;;;;;;;;;5030795;28;20766;-68
2023/12/27 09:55:45;;;;;;;4.57;2.17;;;;;;;;;;5044034;28;20895;-68
2023/12/27 09:58:13;;;;;;;5.10;2.22;;;;;;;;;;5034358;28;20437;-68
2023/12/27 10:00:43;;;;;;;3.40;2.10;;;;;;;;;;5050635;28;20443;-69
2023/12/27 10:03:14;;;;;;;4.22;1.92;;;;;;;;;;5041170;28;20518;-69
2023/12/27 10:05:55;;;;;;;4.78;2.25;;;;;;;;;;5040603;28;20429;-69
2023/12/27 10:08:22;;;;;;;3.80;2.33;;;;;;;;;;5039451;28;20528;-68
2023/12/27 10:10:50;;;;;;;6.95;2.53;;;;;;;;;;5031828;28;21090;-68
2023/12/27 10:13:19;;;;;;;5.45;2.20;;;;;;;;;;5039015;28;20474;-69
2023/12/27 10:15:46;;;;;;;5.30;1.95;;;;;;;;;;5035216;28;20498;-69
2023/12/27 10:18:14;;;;;;;5.07;2.42;;;;;;;;;;5031746;28;20513;-69
2023/12/27 10:20:46;;;;;;;5.83;2.40;;;;;;;;;;5040966;28;20430;-69
2023/12/27 10:23:13;;;;;;;4.90;2.17;;;;;;;;;;5036942;28;20593;-69
2023/12/27 10:25:40;;;;;;;5.18;2.15;;;;;;;;;;5038073;28;20441;-69
2023/12/27 10:28:09;;;;;;;4.17;2.40;;;;;;;;;;5036445;28;21004;-68
2023/12/27 10:30:36;;;;;;;7.10;2.38;;;;;;;;;;5035327;28;20474;-68
2023/12/27 10:33:03;;;;;;;3.55;1.83;;;;;;;;;;5022864;28;20436;-68
2023/12/27 10:35:31;;;;;;;5.53;2.40;;;;;;;;;;5032083;28;21565;-68
2023/12/27 10:38:00;;;;;;;5.13;1.98;;;;;;;;;;5039298;28;20567;-68
2023/12/27 10:40:27;;;;;;;4.15;2.30;;;;;;;;;;5034534;28;20426;-68
2023/12/27 10:42:54;;;;;;;4.40;2.03;;;;;;;;;;5038063;28;20497;-68
2023/12/27 10:45:22;;;;;;;4.63;2.33;;;;;;;;;;5033548;28;20457;-68
2023/12/27 10:48:01;;;;;;;6.07;2.15;;;;;;;;;;5028349;28;20439;-68
2023/12/27 10:50:30;;;;;;;6.95;2.22;;;;;;;;;;5028260;28;20457;-68
2023/12/27 10:53:02;;;;;;;2.80;1.70;;;;;;;;;;5037141;28;20719;-68
2023/12/27 10:55:31;;;;;;;6.18;2.80;;;;;;;;;;5044328;28;20427;-68
2023/12/27 10:58:02;;;;;;;4.57;2.10;;;;;;;;;;5035441;28;20431;-68
2023/12/27 11:00:30;;;;;;;3.10;2.35;;;;;;;;;;5042270;28;20435;-68
2023/12/27 11:02:58;;;;;;;6.10;2.28;;;;;;;;;;5041513;28;20451;-68
2023/12/27 11:05:27;;;;;;;4.20;1.65;;;;;;;;;;5031641;28;20790;-68
2023/12/27 11:07:54;;;;;;;5.65;1.90;;;;;;;;;;5037412;28;20964;-68
2023/12/27 11:10:23;;;;;;;3.75;1.95;;;;;;;;;;5038340;28;20979;-68
2023/12/27 11:12:50;;;;;;;5.43;2.13;;;;;;;;;;5039792;28;20485;-68
2023/12/27 11:15:18;;;;;;;5.00;2.10;;;;;;;;;;5041806;28;20435;-68
2023/12/27 11:17:49;;;;;;;5.40;2.15;;;;;;;;;;5038413;28;20435;-68
2023/12/27 11:20:19;;;;;;;3.15;1.80;;;;;;;;;;5035756;28;20433;-68
2023/12/27 11:22:47;;;;;;;4.03;2.28;;;;;;;;;;5040644;28;20437;-68
2023/12/27 11:25:15;;;;;;;3.83;2.15;;;;;;;;;;5039149;28;20436;-68
2023/12/27 11:27:42;;;;;;;7.13;2.23;;;;;;;;;;5045892;28;21014;-68
2023/12/27 11:30:12;;;;;;;5.47;1.95;;;;;;;;;;5040319;28;20801;-68
2023/12/27 11:32:42;;;;;;;3.08;2.05;;;;;;;;;;5042960;28;20512;-68
2023/12/27 11:35:11;;;;;;;4.03;2.13;;;;;;;;;;5034251;28;20963;-68
2023/12/27 11:37:41;;;;;;;5.32;2.42;;;;;;;;;;5038103;28;20452;-68
2023/12/27 11:40:10;;;;;;;4.38;2.17;;;;;;;;;;5031021;28;20451;-68
2023/12/27 11:42:38;;;;;;;4.03;2.00;;;;;;;;;;5036042;28;20544;-68
2023/12/27 11:45:05;;;;;;;5.40;2.30;;;;;;;;;;5041292;28;20421;-68
2023/12/27 11:47:32;;;;;;;3.78;2.05;;;;;;;;;;5036783;28;20438;-68
2023/12/27 11:50:15;;;;;;;5.40;2.30;;;;;;;;;;5035941;28;20430;-68
2023/12/27 11:52:44;;;;;;;3.42;2.03;;;;;;;;;;5042321;28;20421;-68
2023/12/27 11:55:24;;;;;;;3.15;2.05;;;;;;;;;;5042538;28;20425;-69
2023/12/27 11:57:57;;;;;;;3.75;2.05;;;;;;;;;;5033602;28;21061;-68
2023/12/27 12:00:28;;;;;;;7.07;2.28;;;;;;;;;;5035782;28;20460;-68
2023/12/27 12:02:59;;;;;;;2.65;1.90;;;;;;;;;;5037959;28;20435;-68
2023/12/27 12:05:48;;;;;;;4.25;2.28;;;;;;;;;;5039657;28;20443;-68
2023/12/27 12:08:21;;;;;;;3.25;2.40;;;;;;;;;;5034515;28;20948;-68
2023/12/27 12:11:07;;;;;;;4.05;2.33;;;;;;;;;;5035760;28;20505;-68
2023/12/27 12:13:34;;;;;;;3.92;2.17;;;;;;;;;;5039302;28;20465;-68
2023/12/27 12:16:02;;;;;;;2.63;2.17;;;;;;;;;;5038756;28;20465;-68
2023/12/27 12:18:29;;;;;;;4.05;2.08;;;;;;;;;;5045101;28;21462;-68
2023/12/27 12:20:57;;;;;;;6.47;2.30;;;;;;;;;;5040643;28;20508;-68
2023/12/27 12:23:24;;;;;;;5.38;2.33;;;;;;;;;;5042093;28;20449;-68
2023/12/27 12:25:52;;;;;;;4.20;2.13;;;;;;;;;;5040769;28;20907;-68
2023/12/27 12:28:19;;;;;;;4.32;2.17;;;;;;;;;;5036762;28;20429;-68
2023/12/27 12:30:46;;;;;;;4.90;2.42;;;;;;;;;;5033195;28;20943;-68
2023/12/27 12:33:14;;;;;;;4.35;2.50;;;;;;;;;;5036006;28;20431;-68
2023/12/27 12:35:41;;;;;;;6.68;2.55;;;;;;;;;;5040344;28;20437;-68
2023/12/27 12:38:09;;;;;;;2.83;2.05;;;;;;;;;;5037122;28;20829;-68
2023/12/27 12:40:36;;;;;;;2.97;2.60;;;;;;;;;;5041827;28;20437;-68
2023/12/27 12:43:04;;;;;;;3.77;2.23;;;;;;;;;;5031367;28;20437;-68
2023/12/27 12:45:32;;;;;;;4.97;2.65;;;;;;;;;;5036879;28;20481;-69
2023/12/27 12:47:59;;;;;;;5.38;2.42;;;;;;;;;;5034019;28;20431;-68
2023/12/27 12:50:27;;;;;;;3.78;2.25;;;;;;;;;;5052008;28;20459;-68
2023/12/27 12:52:54;;;;;;;4.38;2.45;;;;;;;;;;5038483;28;20442;-68
2023/12/27 12:55:28;;;;;;;7.00;2.58;;;;;;;;;;5036956;28;20452;-68
2023/12/27 12:57:56;;;;;;;4.20;2.10;;;;;;;;;;5040164;28;20466;-68
2023/12/27 13:00:24;;;;;;;3.10;1.80;;;;;;;;;;5034730;28;20498;-68
2023/12/27 13:02:53;;;;;;;4.07;2.20;;;;;;;;;;5042856;28;20768;-68
2023/12/27 13:05:21;;;;;;;2.22;2.03;;;;;;;;;;5036768;28;20491;-68
2023/12/27 13:07:48;;;;;;;5.72;2.28;;;;;;;;;;5044430;28;20464;-68
2023/12/27 13:10:15;;;;;;;4.82;2.10;;;;;;;;;;5035439;28;20457;-68
2023/12/27 13:12:42;;;;;;;4.93;2.47;;;;;;;;;;5033761;28;20921;-68
2023/12/27 13:15:13;;;;;;;5.30;2.20;;;;;;;;;;5031767;28;20470;-68
2023/12/27 13:17:41;;;;;;;4.30;1.93;;;;;;;;;;5037837;28;20491;-68
2023/12/27 13:20:09;;;;;;;5.50;1.90;;;;;;;;;;5044336;28;20468;-69
2023/12/27 13:22:36;;;;;;;6.32;1.70;;;;;;;;;;5041936;28;20463;-68
2023/12/27 13:25:04;;;;;;;3.83;1.80;;;;;;;;;;5047267;28;20429;-68
2023/12/27 13:27:31;;;;;;;3.75;1.75;;;;;;;;;;5039422;28;20444;-68
2023/12/27 13:29:59;;;;;;;4.80;1.92;;;;;;;;;;5043133;28;20429;-68
2023/12/27 13:32:26;;;;;;;4.85;1.95;;;;;;;;;;5042900;28;20613;-68
2023/12/27 13:34:53;;;;;;;5.22;1.60;;;;;;;;;;5041257;28;20460;-69
2023/12/27 13:37:21;;;;;;;3.33;1.85;;;;;;;;;;5037073;28;20430;-68
2023/12/27 13:39:49;;;;;;;5.20;2.08;;;;;;;;;;5045222;28;20433;-68
2023/12/27 13:42:16;;;;;;;5.47;1.90;;;;;;;;;;5038980;28;20431;-68
2023/12/27 13:44:43;;;;;;;2.90;1.70;;;;;;;;;;5044987;28;20780;-68
2023/12/27 13:47:10;;;;;;;4.13;1.50;;;;;;;;;;5044558;28;20437;-68
2023/12/27 13:49:38;;;;;;;4.22;1.48;;;;;;;;;;5045041;28;20964;-68
2023/12/27 13:52:05;;;;;;;4.18;1.88;;;;;;;;;;5043749;28;20433;-68
2023/12/27 13:54:32;;;;;;;4.20;1.52;;;;;;;;;;5030515;28;20516;-68
2023/12/27 13:57:09;;;;;;;3.65;1.50;;;;;;;;;;5039676;28;20524;-68
2023/12/27 13:59:36;;;;;;;5.65;1.90;;;;;;;;;;5035358;28;20532;-68
2023/12/27 14:02:04;;;;;;;4.90;1.70;;;;;;;;;;5032345;28;20444;-68
2023/12/27 14:04:32;;;;;;;3.88;1.67;;;;;;;;;;5031227;28;20550;-68
2023/12/27 14:07:00;;;;;;;5.65;1.70;;;;;;;;;;5036454;28;20426;-68
2023/12/27 14:09:30;;;;;;;3.30;1.42;;;;;;;;;;5043483;28;20433;-68
2023/12/27 14:11:57;;;;;;;3.10;1.40;;;;;;;;;;5039752;28;20512;-68
2023/12/27 14:14:27;;;;;;;2.97;1.60;;;;;;;;;;5036130;28;20965;-69
2023/12/27 14:16:54;;;;;;;3.10;1.40;;;;;;;;;;5038115;28;20425;-69
2023/12/27 14:19:22;;;;;;;3.25;1.55;;;;;;;;;;5034863;28;20430;-69
2023/12/27 14:21:50;;;;;;;7.28;1.70;;;;;;;;;;5045475;28;20536;-69
2023/12/27 14:24:17;;;;;;;6.57;2.72;;;;;;;;;;5044691;28;20432;-69
2023/12/27 14:26:48;;;;;;;9.20;4.32;;;;;;;;;;5036092;28;20426;-69
2023/12/27 14:29:15;;;;;;;6.05;4.03;;;;;;;;;;5031793;28;20426;-69
2023/12/27 14:31:42;;;;;;;4.35;2.30;;;;;;;;;;5037892;28;20424;-69
2023/12/27 14:34:10;;;;;;;4.95;2.20;;;;;;;;;;5050308;28;20428;-69
2023/12/27 14:36:40;;;;;;;3.72;2.47;;;;;;;;;;5048287;28;20438;-69
2023/12/27 14:39:10;;;;;;;5.40;2.15;;;;;;;;;;5046599;28;20487;-69
2023/12/27 14:41:44;;;;;;;4.25;2.00;;;;;;;;;;5047038;28;20822;-69
2023/12/27 14:44:15;;;;;;;4.18;2.15;;;;;;;;;;5036038;28;20834;-69